createdAt,value
2019-04-22T00:00:44.964Z,4.67
2019-04-22T00:03:14.622Z,5.20
2019-04-22T00:06:00.909Z,5.37
2019-04-22T00:08:40.623Z,5.20
2019-04-22T00:11:03.926Z,5.00
2019-04-22T00:13:40.910Z,4.93
2019-04-22T00:15:56.522Z,5.00
2019-04-22T00:18:42.873Z,5.10
2019-04-22T00:20:59.385Z,4.97
2019-04-22T00:23:29.196Z,5.23
2019-04-22T00:26:01.983Z,5.17
2019-04-22T00:28:35.014Z,5.37
2019-04-22T00:31:04.788Z,5.27
2019-04-22T00:33:29.191Z,5.30
2019-04-22T00:35:54.544Z,4.87
2019-04-22T00:38:33.318Z,5.07
2019-04-22T00:40:55.906Z,4.87
2019-04-22T00:43:24.329Z,4.63
2019-04-22T00:45:47.858Z,4.97
2019-04-22T00:51:01.690Z,5.10
2019-04-22T00:56:09.431Z,4.60
2019-04-22T00:58:30.760Z,5.27
2019-04-22T01:01:04.745Z,5.00
2019-04-22T01:03:35.262Z,4.73
2019-04-22T01:06:04.592Z,4.73
2019-04-22T01:08:36.708Z,5.57
2019-04-22T01:11:03.279Z,4.27
2019-04-22T01:13:24.952Z,5.00
2019-04-22T01:16:00.895Z,4.77
2019-04-22T01:18:23.941Z,4.40
2019-04-22T01:21:07.258Z,4.40
2019-04-22T01:23:23.789Z,4.70
2019-04-22T01:25:55.125Z,5.03
2019-04-22T01:28:15.668Z,4.93
2019-04-22T01:30:40.604Z,5.50
2019-04-22T01:33:11.458Z,4.30
2019-04-22T01:35:41.191Z,4.80
2019-04-22T01:38:16.137Z,4.10
2019-04-22T01:40:58.631Z,4.70
2019-04-22T01:43:30.032Z,4.80
2019-04-22T01:45:56.192Z,4.27
2019-04-22T01:48:17.646Z,4.67
2019-04-22T01:50:46.200Z,4.83
2019-04-22T01:53:24.722Z,4.43
2019-04-22T01:55:46.890Z,4.83
2019-04-22T01:58:11.109Z,4.97
2019-04-22T02:00:46.932Z,4.30
2019-04-22T02:05:35.854Z,4.83
2019-04-22T02:08:15.350Z,4.43
2019-04-22T02:10:53.212Z,4.93
2019-04-22T02:13:06.897Z,5.03
2019-04-22T02:15:38.129Z,4.73
2019-04-22T02:18:11.570Z,4.73
2019-04-22T02:20:37.573Z,4.20
2019-04-22T02:23:40.291Z,4.10
2019-04-22T02:25:49.879Z,4.63
2019-04-22T02:28:26.168Z,4.57
2019-04-22T02:31:02.660Z,5.10
2019-04-22T02:33:40.947Z,4.70
2019-04-22T02:36:09.349Z,4.23
2019-04-22T02:38:35.680Z,4.57
2019-04-22T02:41:06.703Z,4.33
2019-04-22T02:43:26.150Z,5.00
2019-04-22T02:46:03.066Z,4.23
2019-04-22T02:48:25.501Z,4.27
2019-04-22T02:50:43.805Z,4.87
2019-04-22T02:53:41.860Z,4.27
2019-04-22T02:55:55.396Z,4.17
2019-04-22T02:58:16.842Z,4.30
2019-04-22T03:00:45.902Z,4.40
2019-04-22T03:03:20.845Z,4.50
2019-04-22T03:05:47.141Z,4.27
2019-04-22T03:10:53.679Z,4.10
2019-04-22T03:13:09.228Z,4.13
2019-04-22T03:15:41.897Z,3.80
2019-04-22T03:20:33.505Z,4.00
2019-04-22T03:23:16.912Z,3.70
2019-04-22T03:27:52.187Z,4.07
2019-04-22T03:33:11.266Z,4.27
2019-04-22T03:53:01.934Z,4.27
2019-04-22T03:57:50.170Z,4.37
2019-04-22T04:00:26.647Z,4.37
2019-04-22T04:02:56.050Z,4.37
2019-04-22T04:05:22.201Z,4.13
2019-04-22T04:10:25.288Z,4.73
2019-04-22T04:12:53.861Z,4.30
2019-04-22T04:17:44.114Z,4.30
2019-04-22T04:30:18.890Z,4.40
2019-04-22T04:35:12.627Z,4.33
2019-04-22T04:40:10.140Z,4.53
2019-04-22T04:45:11.098Z,4.60
2019-04-22T04:47:42.988Z,4.50
2019-04-22T04:49:57.489Z,3.80
2019-04-22T04:55:06.344Z,3.90
2019-04-22T04:57:28.252Z,3.80
2019-04-22T05:00:30.692Z,3.97
2019-04-22T05:02:20.432Z,4.93
2019-04-22T05:05:00.002Z,3.73
2019-04-22T05:07:18.854Z,4.40
2019-04-22T05:09:32.660Z,4.53
2019-04-22T05:14:36.787Z,4.20
2019-04-22T05:17:12.836Z,3.80
2019-04-22T05:19:32.340Z,4.63
2019-04-22T05:22:05.521Z,4.30
2019-04-22T05:27:10.017Z,3.97
2019-04-22T05:29:43.510Z,4.47
2019-04-22T05:31:57.009Z,4.03
2019-04-22T05:34:39.845Z,4.47
2019-04-22T05:36:53.898Z,4.63
2019-04-22T05:39:24.708Z,4.50
2019-04-22T05:41:55.052Z,4.20
2019-04-22T05:46:50.002Z,4.20
2019-04-22T05:49:18.219Z,3.87
2019-04-22T05:54:14.618Z,4.20
2019-04-22T05:56:40.879Z,4.43
2019-04-22T05:59:12.529Z,3.90
2019-04-22T06:01:55.112Z,4.33
2019-04-22T06:04:11.497Z,4.50
2019-04-22T06:06:35.319Z,4.33
2019-04-22T06:09:10.411Z,4.20
2019-04-22T06:14:08.847Z,4.33
2019-04-22T06:16:45.841Z,4.00
2019-04-22T06:19:14.033Z,3.97
2019-04-22T06:26:45.810Z,3.53
2019-04-22T06:29:12.893Z,3.43
2019-04-22T06:31:49.819Z,4.07
2019-04-22T06:34:11.888Z,4.13
2019-04-22T06:36:43.133Z,3.90
2019-04-22T06:39:02.471Z,4.37
2019-04-22T06:44:09.378Z,3.60
2019-04-22T06:46:34.642Z,3.98
2019-04-22T06:48:56.396Z,3.72
2019-04-22T06:51:30.384Z,4.65
2019-04-22T06:54:00.109Z,4.22
2019-04-22T06:56:22.062Z,4.22
2019-04-22T06:58:55.119Z,4.67
2019-04-22T07:06:37.249Z,4.30
2019-04-22T07:11:11.380Z,3.77
2019-04-22T07:14:02.540Z,3.60
2019-04-22T07:16:13.354Z,3.98
2019-04-22T07:18:43.019Z,3.87
2019-04-22T07:21:06.417Z,3.70
2019-04-22T07:23:45.724Z,3.58
2019-04-22T07:26:11.860Z,3.85
2019-04-22T07:28:34.427Z,4.08
2019-04-22T07:31:05.029Z,3.42
2019-04-22T07:33:37.960Z,3.50
2019-04-22T07:41:03.181Z,3.72
2019-04-22T07:43:43.084Z,3.60
2019-04-22T07:45:56.888Z,3.60
2019-04-22T07:48:33.484Z,3.80
2019-04-22T07:53:21.867Z,3.65
2019-04-22T07:55:51.801Z,3.80
2019-04-22T07:58:27.448Z,3.50
2019-04-22T08:00:55.364Z,4.12
2019-04-22T08:03:29.955Z,3.75
2019-04-22T08:05:58.834Z,3.77
2019-04-22T08:10:49.700Z,3.98
2019-04-22T08:13:16.975Z,3.85
2019-04-22T08:15:51.294Z,3.70
2019-04-22T08:18:17.382Z,3.60
2019-04-22T08:20:48.282Z,3.52
2019-04-22T08:23:19.973Z,3.67
2019-04-22T08:25:42.847Z,3.83
2019-04-22T08:28:11.881Z,3.40
2019-04-22T08:33:18.707Z,3.60
2019-04-22T08:36:00.871Z,3.87
2019-04-22T08:38:14.746Z,3.67
2019-04-22T08:40:41.799Z,3.33
2019-04-22T08:43:12.626Z,3.80
2019-04-22T08:45:38.537Z,3.10
2019-04-22T08:48:07.651Z,3.45
2019-04-22T08:50:33.987Z,3.80
2019-04-22T08:53:09.358Z,3.37
2019-04-22T08:55:40.509Z,3.70
2019-04-22T09:00:38.098Z,3.50
2019-04-22T09:03:04.708Z,3.30
2019-04-22T09:05:51.876Z,3.30
2019-04-22T09:07:58.717Z,3.47
2019-04-22T09:10:36.199Z,3.45
2019-04-22T09:15:30.458Z,3.58
2019-04-22T09:20:28.440Z,3.00
2019-04-22T09:22:53.922Z,3.02
2019-04-22T09:25:27.480Z,3.60
2019-04-22T09:27:49.859Z,3.10
2019-04-22T09:32:55.746Z,3.25
2019-04-22T09:35:21.478Z,3.52
2019-04-22T09:37:48.282Z,3.35
2019-04-22T09:40:15.619Z,3.12
2019-04-22T09:42:43.746Z,3.33
2019-04-22T09:45:12.451Z,3.17
2019-04-22T09:47:49.129Z,2.90
2019-04-22T09:50:12.763Z,2.90
2019-04-22T09:52:44.066Z,3.10
2019-04-22T09:57:52.447Z,3.40
2019-04-22T10:00:12.194Z,3.10
2019-04-22T10:02:59.234Z,3.40
2019-04-22T10:05:07.552Z,2.80
2019-04-22T10:07:31.911Z,2.67
2019-04-22T10:12:42.275Z,3.22
2019-04-22T10:15:13.788Z,2.67
2019-04-22T10:17:26.134Z,3.37
2019-04-22T10:20:10.549Z,2.95
2019-04-22T10:24:56.912Z,3.30
2019-04-22T10:27:20.630Z,2.90
2019-04-22T10:30:03.018Z,2.85
2019-04-22T10:32:17.544Z,2.92
2019-04-22T10:34:39.832Z,3.37
2019-04-22T10:37:04.379Z,3.05
2019-04-22T10:39:41.101Z,3.47
2019-04-22T10:41:58.903Z,2.95
2019-04-22T10:44:27.079Z,3.05
2019-04-22T10:46:54.238Z,2.92
2019-04-22T10:49:22.391Z,3.17
2019-04-22T10:51:50.454Z,3.02
2019-04-22T10:54:17.749Z,2.90
2019-04-22T10:56:45.250Z,2.70
2019-04-22T10:59:12.344Z,2.90
2019-04-22T11:01:40.259Z,3.00
2019-04-22T11:04:07.395Z,3.10
2019-04-22T11:06:40.991Z,3.42
2019-04-22T11:09:06.403Z,3.30
2019-04-22T11:11:44.407Z,2.80
2019-04-22T11:14:04.121Z,3.35
2019-04-22T11:16:31.783Z,3.15
2019-04-22T11:18:59.312Z,3.33
2019-04-22T11:21:27.424Z,3.05
2019-04-22T11:23:54.599Z,3.17
2019-04-22T11:26:21.978Z,3.05
2019-04-22T11:28:49.647Z,3.12
2019-04-22T11:31:16.795Z,3.37
2019-04-22T11:33:44.775Z,3.25
2019-04-22T11:36:11.863Z,2.92
2019-04-22T11:38:45.851Z,3.22
2019-04-22T11:41:07.393Z,2.85
2019-04-22T11:43:34.434Z,2.87
2019-04-22T11:46:03.474Z,2.77
2019-04-22T11:48:31.137Z,2.62
2019-04-22T11:50:58.081Z,2.60
2019-04-22T11:53:24.991Z,2.60
2019-04-22T11:55:53.180Z,5.40
2019-04-22T11:58:21.213Z,2.87
2019-04-22T12:00:49.412Z,2.42
2019-04-22T12:03:17.189Z,2.90
2019-04-22T12:05:45.850Z,2.77
2019-04-22T12:08:13.256Z,2.58
2019-04-22T12:10:46.837Z,2.45
2019-04-22T12:13:10.131Z,2.67
2019-04-22T12:15:37.752Z,2.47
2019-04-22T12:18:05.103Z,2.60
2019-04-22T12:20:32.991Z,2.58
2019-04-22T12:23:01.136Z,2.10
2019-04-22T12:25:42.333Z,2.25
2019-04-22T12:27:57.119Z,2.30
2019-04-22T12:30:25.614Z,2.17
2019-04-22T12:32:52.753Z,2.70
2019-04-22T12:35:19.900Z,2.42
2019-04-22T12:37:53.348Z,2.83
2019-04-22T12:40:29.380Z,2.22
2019-04-22T12:42:45.035Z,2.37
2019-04-22T12:45:16.154Z,2.12
2019-04-22T12:47:44.139Z,2.10
2019-04-22T12:50:19.936Z,2.02
2019-04-22T12:52:47.859Z,2.80
2019-04-22T12:55:12.011Z,2.60
2019-04-22T12:57:39.063Z,2.47
2019-04-22T13:00:09.023Z,2.22
2019-04-22T13:02:36.758Z,2.33
2019-04-22T13:05:05.933Z,2.15
2019-04-22T13:07:33.655Z,2.33
2019-04-22T13:10:01.445Z,2.40
2019-04-22T13:12:29.071Z,2.10
2019-04-22T13:14:57.194Z,2.52
2019-04-22T13:17:24.999Z,2.15
2019-04-22T13:19:52.099Z,2.52
2019-04-22T13:22:19.106Z,2.02
2019-04-22T13:24:46.051Z,1.90
2019-04-22T13:27:13.009Z,1.90
2019-04-22T13:29:41.227Z,1.95
2019-04-22T13:32:08.958Z,2.05
2019-04-22T13:34:42.286Z,2.08
2019-04-22T13:37:05.150Z,1.92
2019-04-22T13:39:32.195Z,2.05
2019-04-22T13:42:03.547Z,2.02
2019-04-22T13:44:28.111Z,1.90
2019-04-22T13:47:08.247Z,1.80
2019-04-22T13:49:59.297Z,1.75
2019-04-22T13:52:35.316Z,1.98
2019-04-22T13:57:09.065Z,1.90
2019-04-22T13:59:28.245Z,1.72
2019-04-22T14:02:19.331Z,1.72
2019-04-22T14:04:46.505Z,1.90
2019-04-22T14:07:14.638Z,2.40
2019-04-22T14:09:42.300Z,1.70
2019-04-22T14:12:12.212Z,1.87
2019-04-22T14:14:41.886Z,1.95
2019-04-22T14:17:07.358Z,1.42
2019-04-22T14:19:34.175Z,1.60
2019-04-22T14:22:01.968Z,1.65
2019-04-22T14:24:29.994Z,2.02
2019-04-22T14:27:13.571Z,1.50
2019-04-22T14:29:26.088Z,1.70
2019-04-22T14:32:03.910Z,1.60
2019-04-22T14:34:21.940Z,1.62
2019-04-22T14:36:48.673Z,1.82
2019-04-22T14:39:15.733Z,1.85
2019-04-22T14:41:57.360Z,1.70
2019-04-22T14:47:11.246Z,1.70
2019-04-22T14:49:28.813Z,1.75
2019-04-22T14:52:03.605Z,2.00
2019-04-22T14:54:24.191Z,1.82
2019-04-22T14:56:36.163Z,2.00
2019-04-22T14:59:03.243Z,1.50
2019-04-22T15:01:30.785Z,1.80
2019-04-22T15:03:58.825Z,1.90
2019-04-22T15:06:26.278Z,1.40
2019-04-22T15:08:56.189Z,2.55
2019-04-22T15:11:23.210Z,1.50
2019-04-22T15:13:51.539Z,2.25
2019-04-22T15:16:42.318Z,1.72
2019-04-22T15:19:31.782Z,1.57
2019-04-22T15:21:58.862Z,1.57
2019-04-22T15:24:27.381Z,1.92
2019-04-22T15:26:56.392Z,2.22
2019-04-22T15:29:25.227Z,1.57
2019-04-22T15:31:53.502Z,2.08
2019-04-22T15:34:20.799Z,1.62
2019-04-22T15:36:48.503Z,1.90
2019-04-22T15:39:15.649Z,1.90
2019-04-22T15:41:55.611Z,1.75
2019-04-22T15:44:12.064Z,1.80
2019-04-22T15:46:39.101Z,1.80
2019-04-22T15:49:06.432Z,1.82
2019-04-22T15:51:34.395Z,2.37
2019-04-22T15:54:03.836Z,1.50
2019-04-22T15:56:30.795Z,1.60
2019-04-22T15:58:57.832Z,1.80
2019-04-22T16:01:29.891Z,2.05
2019-04-22T16:03:54.723Z,1.85
2019-04-22T16:06:22.036Z,2.12
2019-04-22T16:08:49.817Z,1.92
2019-04-22T16:11:18.090Z,1.90
2019-04-22T16:13:46.377Z,1.90
2019-04-22T16:16:14.610Z,1.87
2019-04-22T16:18:42.204Z,1.85
2019-04-22T16:21:09.315Z,1.70
2019-04-22T16:23:50.133Z,2.12
2019-04-22T16:26:36.091Z,1.87
2019-04-22T16:29:03.483Z,1.77
2019-04-22T16:31:31.317Z,2.02
2019-04-22T16:33:58.515Z,1.80
2019-04-22T16:36:26.821Z,1.75
2019-04-22T16:38:55.194Z,1.85
2019-04-22T16:41:24.369Z,1.90
2019-04-22T16:43:51.584Z,2.30
2019-04-22T16:46:19.403Z,2.15
2019-04-22T16:48:47.623Z,2.42
2019-04-22T16:51:16.032Z,2.10
2019-04-22T16:53:43.300Z,19.35
2019-04-22T16:56:11.007Z,2.92
2019-04-22T16:58:38.849Z,2.00
2019-04-22T17:01:10.346Z,1.50
2019-04-22T17:03:56.976Z,1.82
2019-04-22T17:06:27.676Z,1.90
2019-04-22T17:08:55.187Z,1.52
2019-04-22T17:11:22.264Z,1.65
2019-04-22T17:13:50.174Z,1.72
2019-04-22T17:16:18.012Z,1.70
2019-04-22T17:18:46.821Z,1.67
2019-04-22T17:21:14.683Z,2.08
2019-04-22T17:23:43.391Z,1.85
2019-04-22T17:26:10.660Z,1.62
2019-04-22T17:28:37.589Z,1.80
2019-04-22T17:31:04.876Z,1.80
2019-04-22T17:33:32.775Z,1.70
2019-04-22T17:36:01.064Z,1.50
2019-04-22T17:38:40.064Z,1.50
2019-04-22T17:41:11.651Z,1.80
2019-04-22T17:44:03.646Z,2.10
2019-04-22T17:46:30.756Z,1.90
2019-04-22T17:49:25.529Z,1.87
2019-04-22T17:52:10.716Z,1.85
2019-04-22T17:54:37.388Z,1.57
2019-04-22T17:57:08.072Z,1.70
2019-04-22T17:59:38.164Z,1.45
2019-04-22T18:02:05.787Z,1.57
2019-04-22T18:04:16.215Z,1.80
2019-04-22T18:07:15.582Z,2.20
2019-04-22T18:09:57.688Z,2.37
2019-04-22T18:12:04.881Z,2.47
2019-04-22T18:14:46.402Z,2.17
2019-04-22T18:17:01.890Z,2.85
2019-04-22T18:19:26.005Z,2.45
2019-04-22T18:21:51.746Z,2.62
2019-04-22T18:24:17.488Z,2.62
2019-04-22T18:26:56.232Z,2.70
2019-04-22T18:29:22.212Z,2.20
2019-04-22T18:31:43.884Z,2.50
2019-04-22T18:34:15.832Z,2.37
2019-04-22T18:36:47.812Z,2.87
2019-04-22T18:39:22.413Z,2.77
2019-04-22T18:41:48.490Z,2.77
2019-04-22T18:44:19.837Z,2.62
2019-04-22T18:46:42.077Z,2.50
2019-04-22T18:49:12.384Z,2.80
2019-04-22T18:51:51.278Z,2.70
2019-04-22T18:54:48.514Z,2.83
2019-04-22T18:57:15.557Z,2.40
2019-04-22T18:59:32.680Z,2.43
2019-04-22T19:02:04.236Z,2.77
2019-04-22T19:04:31.571Z,3.10
2019-04-22T19:07:16.884Z,2.83
2019-04-22T19:09:53.269Z,3.10
2019-04-22T19:12:23.048Z,2.67
2019-04-22T19:17:19.161Z,2.70
2019-04-22T19:19:45.013Z,2.70
2019-04-22T19:22:06.709Z,2.80
2019-04-22T19:24:36.887Z,2.60
2019-04-22T19:27:02.326Z,3.10
2019-04-22T19:29:39.952Z,2.93
2019-04-22T19:32:05.179Z,2.70
2019-04-22T19:34:32.263Z,2.70
2019-04-22T19:37:03.630Z,2.67
2019-04-22T19:39:25.015Z,2.47
2019-04-22T19:42:00.706Z,3.00
2019-04-22T19:44:29.250Z,3.07
2019-04-22T19:47:18.635Z,2.40
2019-04-22T19:49:33.057Z,2.67
2019-04-22T19:52:05.657Z,2.70
2019-04-22T19:54:24.771Z,2.80
2019-04-22T19:56:40.273Z,2.60
2019-04-22T19:59:19.702Z,2.37
2019-04-22T20:01:52.536Z,2.63
2019-04-22T20:04:46.272Z,2.30
2019-04-22T20:07:15.403Z,2.97
2019-04-22T20:09:55.491Z,2.63
2019-04-22T20:12:16.445Z,2.10
2019-04-22T20:14:48.014Z,3.00
2019-04-22T20:17:07.565Z,2.73
2019-04-22T20:19:49.887Z,2.33
2019-04-22T20:22:14.292Z,3.03
2019-04-22T20:24:27.871Z,2.90
2019-04-22T20:27:13.606Z,2.30
2019-04-22T20:29:41.660Z,2.30
2019-04-22T20:32:12.334Z,2.30
2019-04-22T20:34:38.024Z,2.47
2019-04-22T20:37:11.927Z,2.17
2019-04-22T20:39:38.067Z,2.53
2019-04-22T20:42:16.478Z,2.10
2019-04-22T20:44:35.557Z,2.37
2019-04-22T20:46:56.093Z,2.30
2019-04-22T20:49:31.127Z,1.93
2019-04-22T20:52:08.017Z,2.43
2019-04-22T20:54:23.284Z,2.27
2019-04-22T20:56:51.835Z,2.17
2019-04-22T20:59:20.823Z,2.33
2019-04-22T21:01:52.552Z,2.20
2019-04-22T21:04:11.548Z,1.90
2019-04-22T21:06:47.360Z,1.93
2019-04-22T21:09:25.393Z,2.13
2019-04-22T21:11:45.148Z,2.40
2019-04-22T21:14:17.805Z,2.03
2019-04-22T21:16:53.006Z,2.30
2019-04-22T21:19:21.704Z,1.90
2019-04-22T21:21:46.670Z,2.27
2019-04-22T21:24:09.294Z,1.90
2019-04-22T21:26:39.281Z,1.87
2019-04-22T21:29:09.910Z,2.00
2019-04-22T21:31:38.595Z,2.20
2019-04-22T21:34:08.021Z,1.60
2019-04-22T21:36:42.905Z,2.20
2019-04-22T21:39:03.706Z,2.03
2019-04-22T21:41:34.422Z,1.57
2019-04-22T21:44:06.929Z,1.70
2019-04-22T21:46:35.311Z,1.77
2019-04-22T21:49:06.396Z,1.60
2019-04-22T21:51:39.989Z,1.80
2019-04-22T21:54:06.845Z,1.90
2019-04-22T21:59:06.832Z,1.83
2019-04-22T22:02:00.107Z,1.80
2019-04-22T22:04:25.220Z,2.13
2019-04-22T22:06:42.454Z,1.57
2019-04-22T22:09:27.561Z,1.80
2019-04-22T22:11:49.391Z,1.80
2019-04-22T22:14:25.609Z,1.73
2019-04-22T22:16:45.972Z,1.97
2019-04-22T22:19:17.770Z,1.77
2019-04-22T22:24:22.667Z,1.70
2019-04-22T22:26:50.922Z,1.77
2019-04-22T22:29:31.749Z,1.90
2019-04-22T22:31:51.708Z,2.63
2019-04-22T22:34:21.003Z,1.50
2019-04-22T22:36:36.806Z,1.60
2019-04-22T22:39:04.058Z,1.63
2019-04-22T22:41:18.710Z,2.00
2019-04-22T22:43:50.518Z,1.90
2019-04-22T22:46:28.387Z,1.80
2019-04-22T22:49:04.817Z,1.67
2019-04-22T22:51:39.599Z,1.70
2019-04-22T22:54:03.756Z,2.20
2019-04-22T22:56:39.736Z,1.87
2019-04-22T22:59:00.264Z,2.00
2019-04-22T23:01:30.956Z,2.00
2019-04-22T23:03:57.692Z,1.67
2019-04-22T23:06:34.058Z,1.90
2019-04-22T23:09:02.418Z,1.93
2019-04-22T23:11:40.324Z,1.90
2019-04-22T23:13:57.772Z,1.77
2019-04-22T23:16:13.143Z,2.23
2019-04-22T23:18:30.032Z,2.00
2019-04-22T23:20:59.173Z,2.07
2019-04-22T23:23:48.973Z,1.63
2019-04-22T23:26:38.861Z,1.67
2019-04-22T23:29:06.114Z,1.77
2019-04-22T23:31:37.519Z,1.97
2019-04-22T23:34:10.693Z,2.20
2019-04-22T23:37:10.477Z,1.90
2019-04-22T23:39:56.465Z,2.30
2019-04-22T23:42:19.441Z,1.80
2019-04-22T23:44:42.000Z,1.93
2019-04-22T23:47:11.103Z,2.20
2019-04-22T23:49:42.937Z,2.07
2019-04-22T23:52:19.590Z,1.70
2019-04-22T23:54:50.918Z,1.77
2019-04-22T23:57:23.758Z,2.20
